createdAt,value
2022-10-26T00:01:08.478Z,99623.09
2022-10-26T00:03:36.013Z,99622.03
2022-10-26T00:06:19.512Z,99622.16
2022-10-26T00:08:47.209Z,99620.59
2022-10-26T00:11:14.171Z,99615.38
2022-10-26T00:13:41.356Z,99628.09
2022-10-26T00:16:11.764Z,99615.56
2022-10-26T00:18:39.264Z,99602.38
2022-10-26T00:21:07.443Z,99609.13
2022-10-26T00:23:34.056Z,99601.81
2022-10-26T00:26:00.997Z,99602.72
2022-10-26T00:28:27.915Z,99592.59
2022-10-26T00:30:54.426Z,99592.19
2022-10-26T00:33:21.045Z,99590.19
2022-10-26T00:35:49.268Z,99604.47
2022-10-26T00:38:15.652Z,99601.41
2022-10-26T00:40:42.152Z,99596.94
2022-10-26T00:43:23.505Z,99602.31
2022-10-26T00:45:51.718Z,99613.69
2022-10-26T00:48:35.800Z,99614.84
2022-10-26T00:51:06.925Z,99608.88
2022-10-26T00:53:33.606Z,99605.94
2022-10-26T00:56:01.082Z,99602.13
2022-10-26T00:58:28.077Z,99612.53
2022-10-26T01:00:54.757Z,99622.41
2022-10-26T01:03:25.019Z,99611.81
2022-10-26T01:05:55.631Z,99612.22
2022-10-26T01:08:22.570Z,99610.41
2022-10-26T01:10:49.043Z,99607.50
2022-10-26T01:13:17.099Z,99609.81
2022-10-26T01:16:00.484Z,99608.56
2022-10-26T01:18:45.661Z,99610.06
2022-10-26T01:21:38.612Z,99613.38
2022-10-26T01:24:32.948Z,99606.16
2022-10-26T01:27:21.083Z,99602.91
2022-10-26T01:30:10.162Z,99592.25
2022-10-26T01:32:47.849Z,99589.53
2022-10-26T01:35:26.936Z,99597.56
2022-10-26T01:38:17.533Z,99589.28
2022-10-26T01:40:54.904Z,99594.13
2022-10-26T01:43:23.022Z,99589.53
2022-10-26T01:45:51.058Z,99587.22
2022-10-26T01:48:20.817Z,99574.44
2022-10-26T01:50:49.639Z,99583.19
2022-10-26T01:53:16.527Z,99577.00
2022-10-26T01:55:52.029Z,99565.78
2022-10-26T01:58:18.372Z,99584.81
2022-10-26T02:00:58.099Z,99579.53
2022-10-26T02:03:39.400Z,99582.41
2022-10-26T02:06:09.563Z,99595.56
2022-10-26T02:08:54.147Z,99598.00
2022-10-26T02:11:37.715Z,99588.44
2022-10-26T02:17:19.578Z,99592.59
2022-10-26T02:19:52.407Z,99581.22
2022-10-26T02:22:26.855Z,99582.38
2022-10-26T02:24:54.739Z,99583.78
2022-10-26T02:27:26.860Z,99577.41
2022-10-26T02:29:55.657Z,99578.47
2022-10-26T02:32:29.344Z,99579.91
2022-10-26T02:34:59.540Z,99566.50
2022-10-26T02:37:27.705Z,99560.94
2022-10-26T02:39:56.717Z,99558.28
2022-10-26T02:42:24.970Z,99553.63
2022-10-26T02:44:57.763Z,99555.91
2022-10-26T02:47:26.136Z,99573.41
2022-10-26T02:49:54.438Z,99549.34
2022-10-26T02:52:39.707Z,99556.09
2022-10-26T02:55:13.747Z,99562.16
2022-10-26T02:57:47.775Z,99558.09
2022-10-26T03:00:16.275Z,99558.66
2022-10-26T03:02:47.633Z,99566.81
2022-10-26T03:05:24.587Z,99563.00
2022-10-26T03:07:51.299Z,99570.53
2022-10-26T03:10:18.215Z,99554.53
2022-10-26T03:12:44.647Z,99562.16
2022-10-26T03:15:11.421Z,99560.28
2022-10-26T03:17:37.926Z,99558.97
2022-10-26T03:20:05.109Z,99568.44
2022-10-26T03:22:31.510Z,99570.63
2022-10-26T03:24:57.912Z,99563.22
2022-10-26T03:27:24.356Z,99563.88
2022-10-26T03:29:50.736Z,99560.81
2022-10-26T03:32:17.099Z,99554.66
2022-10-26T03:34:43.488Z,99567.00
2022-10-26T03:37:10.253Z,99554.47
2022-10-26T03:39:36.648Z,99539.94
2022-10-26T03:42:03.388Z,99549.56
2022-10-26T03:44:29.921Z,99542.13
2022-10-26T03:46:56.273Z,99539.22
2022-10-26T03:49:22.665Z,99528.88
2022-10-26T03:51:49.033Z,99535.34
2022-10-26T03:54:15.429Z,99537.78
2022-10-26T03:56:41.875Z,99540.59
2022-10-26T03:59:08.264Z,99548.38
2022-10-26T04:01:34.671Z,99546.44
2022-10-26T04:04:01.170Z,99541.63
2022-10-26T04:06:27.582Z,99538.97
2022-10-26T04:08:58.128Z,99535.03
2022-10-26T04:11:24.495Z,99530.88
2022-10-26T04:13:50.899Z,99535.34
2022-10-26T04:16:17.252Z,99533.84
2022-10-26T04:18:43.715Z,99544.56
2022-10-26T04:21:10.073Z,99538.69
2022-10-26T04:23:36.505Z,99547.03
2022-10-26T04:26:05.363Z,99536.44
2022-10-26T04:28:31.731Z,99535.88
2022-10-26T04:30:58.125Z,99541.63
2022-10-26T04:33:24.546Z,99544.69
2022-10-26T04:35:50.913Z,99550.56
2022-10-26T04:38:17.275Z,99542.59
2022-10-26T04:40:43.666Z,99528.63
2022-10-26T04:43:10.017Z,99531.19
2022-10-26T04:45:36.407Z,99532.59
2022-10-26T04:48:09.622Z,99527.81
2022-10-26T04:50:37.145Z,99514.94
2022-10-26T04:53:08.130Z,99519.00
2022-10-26T04:55:35.318Z,99531.06
2022-10-26T04:58:02.155Z,99523.59
2022-10-26T05:00:30.228Z,99523.72
2022-10-26T05:03:05.246Z,99523.72
2022-10-26T05:05:34.750Z,99524.16
2022-10-26T05:08:01.267Z,99519.34
2022-10-26T05:10:28.278Z,99504.69
2022-10-26T05:12:56.590Z,99520.53
2022-10-26T05:15:23.224Z,99526.72
2022-10-26T05:18:00.025Z,99537.00
2022-10-26T05:20:30.666Z,99532.00
2022-10-26T05:22:58.692Z,99533.00
2022-10-26T05:25:25.744Z,99537.19
2022-10-26T05:27:52.145Z,99527.13
2022-10-26T05:30:18.591Z,99532.41
2022-10-26T05:32:44.986Z,99520.56
2022-10-26T05:35:11.397Z,99534.13
2022-10-26T05:37:37.815Z,99534.03
2022-10-26T05:40:04.657Z,99533.78
2022-10-26T05:42:31.028Z,99534.75
2022-10-26T05:44:57.540Z,99526.22
2022-10-26T05:47:23.889Z,99525.25
2022-10-26T05:49:50.262Z,99536.44
2022-10-26T05:52:16.619Z,99537.72
2022-10-26T05:54:42.998Z,99524.13
2022-10-26T05:57:13.199Z,99537.69
2022-10-26T05:59:39.934Z,99526.22
2022-10-26T06:02:17.776Z,99530.81
2022-10-26T06:04:48.651Z,99527.66
2022-10-26T06:07:18.194Z,99535.59
2022-10-26T06:09:45.645Z,99534.19
2022-10-26T06:12:14.489Z,99537.53
2022-10-26T06:14:43.896Z,99539.47
2022-10-26T06:17:41.489Z,99547.34
2022-10-26T06:20:21.987Z,99541.06
2022-10-26T06:23:20.459Z,99551.75
2022-10-26T06:26:09.775Z,99553.75
2022-10-26T06:29:06.244Z,99556.78
2022-10-26T06:31:32.627Z,99561.53
2022-10-26T06:34:00.340Z,99574.94
2022-10-26T06:36:29.001Z,99568.91
2022-10-26T06:39:07.535Z,99561.69
2022-10-26T06:41:35.785Z,99576.63
2022-10-26T06:44:03.070Z,99576.88
2022-10-26T06:46:36.650Z,99574.63
2022-10-26T06:49:19.461Z,99574.69
2022-10-26T06:52:07.178Z,99577.13
2022-10-26T06:54:52.050Z,99590.38
2022-10-26T06:57:21.978Z,99595.56
2022-10-26T06:59:54.241Z,99598.44
2022-10-26T07:02:21.191Z,99587.72
2022-10-26T07:04:47.806Z,99596.78
2022-10-26T07:07:18.214Z,99594.69
2022-10-26T07:09:44.732Z,99582.38
2022-10-26T07:12:11.131Z,99610.50
2022-10-26T07:14:37.565Z,99613.75
2022-10-26T07:17:04.215Z,99615.81
2022-10-26T07:19:30.702Z,99608.25
2022-10-26T07:22:01.191Z,99614.00
2022-10-26T07:24:28.588Z,99605.59
2022-10-26T07:26:55.901Z,99615.63
2022-10-26T07:29:23.530Z,99614.34
2022-10-26T07:31:50.279Z,99625.97
2022-10-26T07:34:16.764Z,99626.28
2022-10-26T07:36:43.602Z,99627.56
2022-10-26T07:39:09.985Z,99633.53
2022-10-26T07:41:36.479Z,99632.97
2022-10-26T07:44:02.900Z,99626.28
2022-10-26T07:46:29.351Z,99638.09
2022-10-26T07:48:55.713Z,99641.38
2022-10-26T07:51:22.094Z,99649.19
2022-10-26T07:53:48.507Z,99643.31
2022-10-26T07:56:14.992Z,99640.50
2022-10-26T07:58:41.523Z,99646.22
2022-10-26T08:01:10.721Z,99643.00
2022-10-26T08:03:37.251Z,99636.16
2022-10-26T08:06:04.989Z,99649.88
2022-10-26T08:08:32.188Z,99638.59
2022-10-26T08:10:59.108Z,99641.84
2022-10-26T08:13:25.570Z,99643.53
2022-10-26T08:15:59.823Z,99639.19
2022-10-26T08:18:26.843Z,99650.22
2022-10-26T08:20:58.701Z,99655.84
2022-10-26T08:23:32.446Z,99646.16
2022-10-26T08:26:00.075Z,99652.03
2022-10-26T08:28:27.159Z,99648.66
2022-10-26T08:30:53.649Z,99652.28
2022-10-26T08:33:20.479Z,99651.75
2022-10-26T08:35:46.935Z,99654.88
2022-10-26T08:38:13.586Z,99645.69
2022-10-26T08:40:42.849Z,99641.88
2022-10-26T08:43:36.999Z,99640.78
2022-10-26T08:46:25.621Z,99646.22
2022-10-26T08:49:00.579Z,99654.66
2022-10-26T08:51:35.369Z,99660.06
2022-10-26T08:54:30.947Z,99673.91
2022-10-26T08:57:00.254Z,99674.75
2022-10-26T08:59:38.614Z,99669.75
2022-10-26T09:02:13.101Z,99673.53
2022-10-26T09:04:39.662Z,99678.69
2022-10-26T09:07:24.534Z,99684.59
2022-10-26T09:09:57.043Z,99683.22
2022-10-26T09:12:39.333Z,99676.13
2022-10-26T09:15:08.575Z,99672.69
2022-10-26T09:18:04.843Z,99673.66
2022-10-26T09:20:31.158Z,99688.47
2022-10-26T09:23:10.487Z,99682.19
2022-10-26T09:25:41.493Z,99681.22
2022-10-26T09:28:16.081Z,99686.81
2022-10-26T09:30:45.603Z,99690.44
2022-10-26T09:33:19.725Z,99707.19
2022-10-26T09:35:52.802Z,99707.75
2022-10-26T09:38:29.786Z,99707.47
2022-10-26T09:41:04.072Z,99712.38
2022-10-26T09:43:43.413Z,99710.31
2022-10-26T09:46:18.378Z,99706.66
2022-10-26T09:49:05.831Z,99702.19
2022-10-26T09:51:37.141Z,99706.66
2022-10-26T09:54:13.439Z,99707.34
2022-10-26T09:56:40.995Z,99706.25
2022-10-26T09:59:07.720Z,99718.84
2022-10-26T10:01:38.490Z,99716.31
2022-10-26T10:04:10.783Z,99726.25
2022-10-26T10:06:37.262Z,99722.63
2022-10-26T10:09:19.194Z,99725.41
2022-10-26T10:11:55.067Z,99730.31
2022-10-26T10:14:24.387Z,99722.75
2022-10-26T10:16:55.840Z,99738.28
2022-10-26T10:19:25.699Z,99741.91
2022-10-26T10:21:55.465Z,99737.19
2022-10-26T10:24:36.919Z,99744.84
2022-10-26T10:27:17.012Z,99750.34
2022-10-26T10:29:52.061Z,99754.44
2022-10-26T10:32:23.469Z,99757.91
2022-10-26T10:34:51.509Z,99757.59
2022-10-26T10:37:38.627Z,99760.38
2022-10-26T10:40:18.025Z,99754.03
2022-10-26T10:42:47.689Z,99754.19
2022-10-26T10:45:22.009Z,99770.00
2022-10-26T10:48:13.067Z,99772.69
2022-10-26T10:50:53.550Z,99760.81
2022-10-26T10:53:30.009Z,99769.25
2022-10-26T10:56:11.822Z,99768.75
2022-10-26T10:58:59.809Z,99778.72
2022-10-26T11:01:32.213Z,99773.63
2022-10-26T11:04:35.390Z,99768.31
2022-10-26T11:07:06.461Z,99775.25
2022-10-26T11:09:34.666Z,99779.78
2022-10-26T11:12:21.033Z,99778.09
2022-10-26T11:14:54.677Z,99788.72
2022-10-26T11:18:05.048Z,99779.88
2022-10-26T11:20:38.570Z,99774.75
2022-10-26T11:23:44.338Z,99786.56
2022-10-26T11:26:34.133Z,99787.13
2022-10-26T11:29:05.687Z,99778.28
2022-10-26T11:31:42.312Z,99784.31
2022-10-26T11:34:19.639Z,99777.44
2022-10-26T11:36:52.073Z,99781.13
2022-10-26T11:39:44.916Z,99782.34
2022-10-26T11:42:18.179Z,99792.72
2022-10-26T11:44:52.725Z,99785.66
2022-10-26T11:47:38.803Z,99788.34
2022-10-26T11:50:19.066Z,99792.66
2022-10-26T11:53:16.707Z,99788.34
2022-10-26T11:55:50.095Z,99779.66
2022-10-26T11:58:17.197Z,99795.03
2022-10-26T12:01:08.296Z,99788.84
2022-10-26T12:03:43.853Z,99786.50
2022-10-26T12:06:10.615Z,99786.50
2022-10-26T12:08:45.333Z,99785.53
2022-10-26T12:11:36.744Z,99786.50
2022-10-26T12:14:25.369Z,99786.81
2022-10-26T12:17:04.132Z,99793.97
2022-10-26T12:19:38.772Z,99795.47
2022-10-26T12:22:11.602Z,99796.66
2022-10-26T12:24:43.801Z,99782.44
2022-10-26T12:27:31.668Z,99792.66
2022-10-26T12:30:24.639Z,99801.00
2022-10-26T12:32:56.874Z,99802.13
2022-10-26T12:35:45.641Z,99799.59
2022-10-26T12:38:21.487Z,99799.56
2022-10-26T12:40:49.056Z,99805.25
2022-10-26T12:43:15.411Z,99802.88
2022-10-26T12:45:43.267Z,99799.69
2022-10-26T12:48:40.393Z,99808.09
2022-10-26T12:51:22.182Z,99818.59
2022-10-26T12:54:16.913Z,99815.94
2022-10-26T12:56:55.557Z,99816.25
2022-10-26T12:59:48.982Z,99813.25
2022-10-26T13:02:35.358Z,99822.38
2022-10-26T13:05:42.482Z,99815.31
2022-10-26T13:08:14.079Z,99816.78
2022-10-26T13:11:04.365Z,99824.66
2022-10-26T13:13:33.202Z,99810.94
2022-10-26T13:16:01.164Z,99817.28
2022-10-26T13:18:28.523Z,99830.63
2022-10-26T13:21:22.486Z,99824.28
2022-10-26T13:23:54.795Z,99832.47
2022-10-26T13:26:24.546Z,99833.91
2022-10-26T13:29:02.909Z,99840.81
2022-10-26T13:31:30.065Z,99842.78
2022-10-26T13:34:01.035Z,99833.09
2022-10-26T13:36:32.103Z,99839.59
2022-10-26T13:39:02.593Z,99839.06
2022-10-26T13:41:42.575Z,99838.03
2022-10-26T13:44:20.433Z,99847.88
2022-10-26T13:46:56.538Z,99852.22
2022-10-26T13:50:01.654Z,99862.22
2022-10-26T13:52:43.744Z,99859.88
2022-10-26T13:55:14.961Z,99863.34
2022-10-26T13:57:49.313Z,99865.72
2022-10-26T14:00:23.975Z,99847.56
2022-10-26T14:02:50.695Z,99865.44
2022-10-26T14:05:19.066Z,99858.44
2022-10-26T14:07:52.740Z,99872.00
2022-10-26T14:10:32.904Z,99872.84
2022-10-26T14:13:00.385Z,99873.16
2022-10-26T14:15:30.661Z,99868.63
2022-10-26T14:17:59.683Z,99881.53
2022-10-26T14:20:28.513Z,99877.88
2022-10-26T14:22:54.932Z,99879.53
2022-10-26T14:25:36.216Z,99881.22
2022-10-26T14:28:27.919Z,99883.56
2022-10-26T14:30:54.512Z,99879.53
2022-10-26T14:33:27.436Z,99888.91
2022-10-26T14:35:55.115Z,99892.44
2022-10-26T14:38:29.244Z,99888.91
2022-10-26T14:40:58.611Z,99905.09
2022-10-26T14:43:26.187Z,99899.28
2022-10-26T14:45:54.140Z,99897.59
2022-10-26T14:48:33.189Z,99899.47
2022-10-26T14:51:16.053Z,99905.78
2022-10-26T14:53:50.053Z,99916.31
2022-10-26T14:56:39.985Z,99905.94
2022-10-26T14:59:26.661Z,99913.94
2022-10-26T15:02:11.398Z,99916.78
2022-10-26T15:04:40.675Z,99918.59
2022-10-26T15:07:09.601Z,99925.97
2022-10-26T15:09:48.936Z,99929.28
2022-10-26T15:12:22.376Z,99936.63
2022-10-26T15:14:50.892Z,99911.38
2022-10-26T15:17:31.973Z,99927.94
2022-10-26T15:20:05.087Z,99937.09
2022-10-26T15:22:32.569Z,99940.91
2022-10-26T15:25:05.653Z,99942.59
2022-10-26T15:27:32.195Z,99948.94
2022-10-26T15:30:26.474Z,99952.59
2022-10-26T15:32:54.823Z,99947.41
2022-10-26T15:35:21.518Z,99953.06
2022-10-26T15:37:49.534Z,99950.69
2022-10-26T15:40:16.654Z,99953.84
2022-10-26T15:42:45.663Z,99962.84
2022-10-26T15:45:27.245Z,99974.19
2022-10-26T15:47:56.660Z,99967.47
2022-10-26T15:50:25.786Z,99953.56
2022-10-26T15:53:00.365Z,99976.94
2022-10-26T15:55:27.741Z,99980.25
2022-10-26T15:57:54.094Z,99978.88
2022-10-26T16:00:20.557Z,99981.16
2022-10-26T16:02:47.048Z,99990.59
2022-10-26T16:05:16.106Z,99982.22
2022-10-26T16:07:45.152Z,99985.34
2022-10-26T16:10:20.310Z,99985.13
2022-10-26T16:12:47.136Z,99992.72
2022-10-26T16:15:19.266Z,99993.19
2022-10-26T16:17:46.641Z,99994.63
2022-10-26T16:20:16.466Z,99994.09
2022-10-26T16:22:47.980Z,99990.16
2022-10-26T16:25:16.765Z,99998.16
2022-10-26T16:27:43.812Z,99999.03
2022-10-26T16:30:12.801Z,100006.34
2022-10-26T16:32:39.974Z,100005.69
2022-10-26T16:35:07.105Z,100019.66
2022-10-26T16:37:33.548Z,100004.28
2022-10-26T16:39:59.915Z,100010.88
2022-10-26T16:42:28.281Z,100014.69
2022-10-26T16:44:57.577Z,100019.63
2022-10-26T16:47:27.069Z,100028.34
2022-10-26T16:49:53.742Z,100034.97
2022-10-26T16:52:20.149Z,100029.22
2022-10-26T16:54:46.526Z,100032.16
2022-10-26T16:57:12.961Z,100036.53
2022-10-26T16:59:39.357Z,100045.94
2022-10-26T17:02:05.955Z,100043.72
2022-10-26T17:04:32.374Z,100050.88
2022-10-26T17:06:58.767Z,100054.38
2022-10-26T17:09:25.119Z,100052.84
2022-10-26T17:11:51.592Z,100054.38
2022-10-26T17:14:17.950Z,100058.63
2022-10-26T17:16:44.346Z,100062.84
2022-10-26T17:19:11.506Z,100062.13
2022-10-26T17:21:37.961Z,100063.13
2022-10-26T17:24:04.566Z,100072.50
2022-10-26T17:26:31.025Z,100076.56
2022-10-26T17:28:58.358Z,100078.41
2022-10-26T17:31:25.588Z,100082.59
2022-10-26T17:33:52.420Z,100085.41
2022-10-26T17:36:20.983Z,100088.63
2022-10-26T17:38:53.009Z,100099.69
2022-10-26T17:41:21.298Z,100100.69
2022-10-26T17:43:49.145Z,100103.47
2022-10-26T17:46:21.287Z,100113.72
2022-10-26T17:48:47.815Z,100113.72
2022-10-26T17:51:17.343Z,100121.00
2022-10-26T17:53:47.023Z,100116.50
2022-10-26T17:56:17.870Z,100122.28
2022-10-26T17:58:44.536Z,100122.81
2022-10-26T18:01:13.257Z,100125.06
2022-10-26T18:03:40.309Z,100123.38
2022-10-26T18:06:07.545Z,100127.44
2022-10-26T18:08:35.454Z,100129.13
2022-10-26T18:11:02.924Z,100126.59
2022-10-26T18:13:32.004Z,100137.13
2022-10-26T18:16:06.960Z,100129.13
2022-10-26T18:18:34.063Z,100139.34
2022-10-26T18:21:02.832Z,100133.47
2022-10-26T18:23:29.366Z,100145.25
2022-10-26T18:26:13.339Z,100150.59
2022-10-26T18:28:41.257Z,100148.19
2022-10-26T18:31:10.591Z,100158.41
2022-10-26T18:33:37.872Z,100157.00
2022-10-26T18:36:16.447Z,100162.47
2022-10-26T18:38:43.797Z,100171.59
2022-10-26T18:41:12.257Z,100168.94
2022-10-26T18:43:44.231Z,100165.72
2022-10-26T18:46:17.650Z,100169.06
2022-10-26T18:48:47.193Z,100167.66
2022-10-26T18:51:19.379Z,100171.47
2022-10-26T18:53:47.050Z,100176.34
2022-10-26T18:56:16.552Z,100172.81
2022-10-26T18:58:45.497Z,100176.34
2022-10-26T19:01:28.024Z,100181.19
2022-10-26T19:03:59.980Z,100184.72
2022-10-26T19:06:29.704Z,100192.69
2022-10-26T19:08:56.903Z,100194.81
2022-10-26T19:11:26.605Z,100200.66
2022-10-26T19:13:54.129Z,100210.75
2022-10-26T19:16:40.594Z,100208.34
2022-10-26T19:19:10.708Z,100212.38
2022-10-26T19:21:37.823Z,100219.81
2022-10-26T19:24:05.094Z,100224.72
2022-10-26T19:26:36.811Z,100219.41
2022-10-26T19:29:07.273Z,100226.66
2022-10-26T19:31:35.869Z,100232.25
2022-10-26T19:34:03.187Z,100236.19
2022-10-26T19:36:30.629Z,100238.69
2022-10-26T19:38:57.915Z,100240.59
2022-10-26T19:41:26.931Z,100248.53
2022-10-26T19:46:26.588Z,100256.53
2022-10-26T19:48:55.468Z,100257.94
2022-10-26T19:51:22.870Z,100258.09
2022-10-26T19:53:49.801Z,100253.81
2022-10-26T19:56:20.675Z,100261.97
2022-10-26T19:58:50.527Z,100269.03
2022-10-26T20:01:17.541Z,100266.91
2022-10-26T20:03:45.314Z,100269.31
2022-10-26T20:06:16.042Z,100263.72
2022-10-26T20:08:45.871Z,100267.63
2022-10-26T20:11:15.651Z,100266.84
2022-10-26T20:13:43.768Z,100267.28
2022-10-26T20:16:10.514Z,100279.81
2022-10-26T20:18:36.959Z,100279.81
2022-10-26T20:21:10.201Z,100276.28
2022-10-26T20:23:37.072Z,100286.16
2022-10-26T20:26:03.986Z,100279.25
2022-10-26T20:28:30.894Z,100282.66
2022-10-26T20:30:59.191Z,100280.47
2022-10-26T20:33:26.311Z,100293.28
2022-10-26T20:35:57.598Z,100304.56
2022-10-26T20:38:24.561Z,100290.88
2022-10-26T20:40:56.517Z,100293.34
2022-10-26T20:43:23.411Z,100297.50
2022-10-26T20:45:50.117Z,100298.19
2022-10-26T20:48:17.026Z,100298.13
2022-10-26T20:50:51.397Z,100300.88
2022-10-26T20:53:34.492Z,100305.81
2022-10-26T20:56:04.985Z,100309.94
2022-10-26T20:58:41.626Z,100309.69
2022-10-26T21:01:32.600Z,100320.09
2022-10-26T21:04:01.932Z,100320.94
2022-10-26T21:06:29.133Z,100319.44
2022-10-26T21:08:56.611Z,100318.66
2022-10-26T21:11:24.727Z,100314.78
2022-10-26T21:13:53.160Z,100315.50
2022-10-26T21:16:19.658Z,100321.03
2022-10-26T21:18:46.169Z,100324.69
2022-10-26T21:21:12.691Z,100329.03
2022-10-26T21:23:40.617Z,100331.25
2022-10-26T21:26:08.011Z,100333.53
2022-10-26T21:28:36.946Z,100333.91
2022-10-26T21:31:05.854Z,100337.28
2022-10-26T21:33:32.837Z,100327.38
2022-10-26T21:36:00.135Z,100337.19
2022-10-26T21:38:27.858Z,100342.47
2022-10-26T21:41:05.658Z,100340.44
2022-10-26T21:43:33.240Z,100344.41
2022-10-26T21:46:03.614Z,100346.22
2022-10-26T21:48:31.029Z,100339.84
2022-10-26T21:50:57.708Z,100333.31
2022-10-26T21:53:26.688Z,100341.78
2022-10-26T21:56:07.826Z,100347.91
2022-10-26T21:58:34.240Z,100351.75
2022-10-26T22:01:09.601Z,100350.34
2022-10-26T22:03:36.618Z,100350.94
2022-10-26T22:06:04.510Z,100353.69
2022-10-26T22:08:31.614Z,100352.72
2022-10-26T22:10:58.329Z,100343.44
2022-10-26T22:13:25.090Z,100351.31
2022-10-26T22:16:22.695Z,100350.19
2022-10-26T22:18:51.133Z,100358.53
2022-10-26T22:21:19.017Z,100359.84
2022-10-26T22:23:46.257Z,100362.38
2022-10-26T22:26:15.912Z,100365.16
2022-10-26T22:28:43.947Z,100365.88
2022-10-26T22:31:16.655Z,100364.28
2022-10-26T22:33:43.680Z,100364.19
2022-10-26T22:36:12.237Z,100367.81
2022-10-26T22:38:39.237Z,100375.84
2022-10-26T22:41:06.414Z,100379.84
2022-10-26T22:43:33.147Z,100386.22
2022-10-26T22:46:06.990Z,100377.75
2022-10-26T22:48:34.869Z,100385.50
2022-10-26T22:51:08.841Z,100377.44
2022-10-26T22:53:35.467Z,100381.81
2022-10-26T22:56:03.302Z,100384.41
2022-10-26T22:58:30.084Z,100379.94
2022-10-26T23:01:08.380Z,100376.41
2022-10-26T23:03:35.342Z,100380.88
2022-10-26T23:06:02.819Z,100382.47
2022-10-26T23:08:29.723Z,100388.28
2022-10-26T23:11:00.928Z,100394.72
2022-10-26T23:13:27.484Z,100391.66
2022-10-26T23:15:54.175Z,100387.44
2022-10-26T23:18:21.041Z,100385.41
2022-10-26T23:20:51.672Z,100380.22
2022-10-26T23:23:18.520Z,100388.53
2022-10-26T23:25:45.073Z,100390.63
2022-10-26T23:28:11.876Z,100388.94
2022-10-26T23:30:38.270Z,100397.16
2022-10-26T23:33:04.715Z,100393.41
2022-10-26T23:35:31.237Z,100405.59
2022-10-26T23:37:59.066Z,100407.50
2022-10-26T23:40:26.594Z,100407.25
2022-10-26T23:42:53.735Z,100402.91
2022-10-26T23:45:21.556Z,100408.03
2022-10-26T23:47:48.530Z,100408.09
2022-10-26T23:50:15.554Z,100392.69
2022-10-26T23:52:42.039Z,100401.94
2022-10-26T23:55:08.848Z,100389.03
2022-10-26T23:57:35.275Z,100385.47
